sensor_id;sensor_type;location;lat;lon;timestamp;temperature;humidity
55203;DHT22;41077;52.956;6.796;2023-07-09T04:45:45;25.10;91.00
55203;DHT22;41077;52.956;6.796;2023-07-09T04:48:11;20.60;99.90
55203;DHT22;41077;52.956;6.796;2023-07-09T04:50:36;20.40;99.90
55203;DHT22;41077;52.956;6.796;2023-07-09T04:53:02;20.40;99.90
55203;DHT22;41077;52.956;6.796;2023-07-09T04:55:29;20.40;99.90
55203;DHT22;41077;52.956;6.796;2023-07-09T04:57:54;20.40;99.90
55203;DHT22;41077;52.956;6.796;2023-07-09T05:00:20;20.50;99.90
55203;DHT22;41077;52.956;6.796;2023-07-09T05:02:46;20.50;99.90
55203;DHT22;41077;52.956;6.796;2023-07-09T05:05:11;20.50;99.90
55203;DHT22;41077;52.956;6.796;2023-07-09T05:07:38;20.60;99.90
55203;DHT22;41077;52.956;6.796;2023-07-09T05:10:05;20.60;99.90
55203;DHT22;41077;52.956;6.796;2023-07-09T05:12:30;20.70;99.90
55203;DHT22;41077;52.956;6.796;2023-07-09T05:14:57;20.70;99.90
55203;DHT22;41077;52.956;6.796;2023-07-09T05:17:23;20.70;99.90
55203;DHT22;41077;52.956;6.796;2023-07-09T05:19:50;20.80;99.90
55203;DHT22;41077;52.956;6.796;2023-07-09T05:22:16;20.90;99.90
55203;DHT22;41077;52.956;6.796;2023-07-09T05:24:41;21.00;99.90
55203;DHT22;41077;52.956;6.796;2023-07-09T05:27:08;21.10;99.90
55203;DHT22;41077;52.956;6.796;2023-07-09T05:29:34;21.20;99.90
55203;DHT22;41077;52.956;6.796;2023-07-09T05:31:59;21.20;99.90
55203;DHT22;41077;52.956;6.796;2023-07-09T05:34:25;21.30;99.90
55203;DHT22;41077;52.956;6.796;2023-07-09T05:36:51;21.40;99.90
55203;DHT22;41077;52.956;6.796;2023-07-09T05:39:16;21.40;99.90
55203;DHT22;41077;52.956;6.796;2023-07-09T05:41:42;21.50;99.90
55203;DHT22;41077;52.956;6.796;2023-07-09T05:44:08;21.60;99.90
55203;DHT22;41077;52.956;6.796;2023-07-09T05:46:36;21.60;99.90
55203;DHT22;41077;52.956;6.796;2023-07-09T05:49:05;21.70;99.90
55203;DHT22;41077;52.956;6.796;2023-07-09T05:51:31;21.80;99.90
55203;DHT22;41077;52.956;6.796;2023-07-09T05:53:57;21.80;99.90
55203;DHT22;41077;52.956;6.796;2023-07-09T05:56:22;21.90;99.90
55203;DHT22;41077;52.956;6.796;2023-07-09T05:58:48;21.90;99.90
55203;DHT22;41077;52.956;6.796;2023-07-09T06:01:14;22.00;99.90
55203;DHT22;41077;52.956;6.796;2023-07-09T06:03:39;22.10;99.90
55203;DHT22;41077;52.956;6.796;2023-07-09T06:06:05;22.20;99.90
55203;DHT22;41077;52.956;6.796;2023-07-09T06:08:31;22.20;99.90
55203;DHT22;41077;52.956;6.796;2023-07-09T06:10:59;22.20;99.90
55203;DHT22;41077;52.956;6.796;2023-07-09T06:13:26;22.20;99.90
55203;DHT22;41077;52.956;6.796;2023-07-09T06:15:54;22.30;99.90
55203;DHT22;41077;52.956;6.796;2023-07-09T06:18:21;22.30;99.90
55203;DHT22;41077;52.956;6.796;2023-07-09T06:20:52;22.40;99.90
55203;DHT22;41077;52.956;6.796;2023-07-09T06:23:18;22.50;99.90
55203;DHT22;41077;52.956;6.796;2023-07-09T06:25:45;22.50;99.90
55203;DHT22;41077;52.956;6.796;2023-07-09T06:28:17;22.50;99.90
55203;DHT22;41077;52.956;6.796;2023-07-09T06:30:43;22.60;99.90
55203;DHT22;41077;52.956;6.796;2023-07-09T06:33:10;22.70;99.90
55203;DHT22;41077;52.956;6.796;2023-07-09T06:35:36;22.70;99.90
55203;DHT22;41077;52.956;6.796;2023-07-09T06:38:02;22.80;99.90
55203;DHT22;41077;52.956;6.796;2023-07-09T06:40:28;22.90;99.90
55203;DHT22;41077;52.956;6.796;2023-07-09T06:42:54;22.90;99.90
55203;DHT22;41077;52.956;6.796;2023-07-09T06:45:20;23.00;99.90
55203;DHT22;41077;52.956;6.796;2023-07-09T06:47:46;23.10;99.90
55203;DHT22;41077;52.956;6.796;2023-07-09T06:50:14;23.20;99.90
55203;DHT22;41077;52.956;6.796;2023-07-09T06:52:40;23.40;99.90
55203;DHT22;41077;52.956;6.796;2023-07-09T06:55:07;23.50;99.90
55203;DHT22;41077;52.956;6.796;2023-07-09T06:57:33;23.60;99.90
55203;DHT22;41077;52.956;6.796;2023-07-09T06:59:59;23.70;99.90
55203;DHT22;41077;52.956;6.796;2023-07-09T07:02:25;23.80;99.90
55203;DHT22;41077;52.956;6.796;2023-07-09T07:04:51;23.90;99.90
55203;DHT22;41077;52.956;6.796;2023-07-09T07:07:16;23.90;99.90
55203;DHT22;41077;52.956;6.796;2023-07-09T07:09:42;23.90;99.90
55203;DHT22;41077;52.956;6.796;2023-07-09T07:12:08;23.90;99.90
55203;DHT22;41077;52.956;6.796;2023-07-09T07:14:34;24.00;99.90
55203;DHT22;41077;52.956;6.796;2023-07-09T07:16:59;24.00;99.90
55203;DHT22;41077;52.956;6.796;2023-07-09T07:19:26;24.10;99.90
55203;DHT22;41077;52.956;6.796;2023-07-09T07:21:52;24.20;99.90
55203;DHT22;41077;52.956;6.796;2023-07-09T07:24:17;24.30;99.90
55203;DHT22;41077;52.956;6.796;2023-07-09T07:26:43;24.40;99.90
55203;DHT22;41077;52.956;6.796;2023-07-09T07:29:09;24.50;99.90
55203;DHT22;41077;52.956;6.796;2023-07-09T07:31:34;24.70;99.90
55203;DHT22;41077;52.956;6.796;2023-07-09T07:34:00;24.80;99.90
55203;DHT22;41077;52.956;6.796;2023-07-09T07:36:26;25.00;99.90
55203;DHT22;41077;52.956;6.796;2023-07-09T07:38:51;25.10;99.90
55203;DHT22;41077;52.956;6.796;2023-07-09T07:41:17;25.20;99.80
55203;DHT22;41077;52.956;6.796;2023-07-09T07:43:42;25.30;99.70
55203;DHT22;41077;52.956;6.796;2023-07-09T07:46:08;25.40;99.40
55203;DHT22;41077;52.956;6.796;2023-07-09T07:48:34;25.50;99.40
55203;DHT22;41077;52.956;6.796;2023-07-09T07:51:01;25.60;99.70
55203;DHT22;41077;52.956;6.796;2023-07-09T07:53:28;25.80;99.70
55203;DHT22;41077;52.956;6.796;2023-07-09T07:55:56;25.90;99.40
55203;DHT22;41077;52.956;6.796;2023-07-09T07:58:22;26.00;99.00
55203;DHT22;41077;52.956;6.796;2023-07-09T08:00:48;26.10;98.40
55203;DHT22;41077;52.956;6.796;2023-07-09T08:03:14;26.20;98.20
55203;DHT22;41077;52.956;6.796;2023-07-09T08:05:40;26.20;97.60
55203;DHT22;41077;52.956;6.796;2023-07-09T08:08:05;26.40;97.40
55203;DHT22;41077;52.956;6.796;2023-07-09T08:10:31;26.40;97.50
55203;DHT22;41077;52.956;6.796;2023-07-09T08:12:57;26.50;97.10
55203;DHT22;41077;52.956;6.796;2023-07-09T08:15:26;26.60;96.50
55203;DHT22;41077;52.956;6.796;2023-07-09T08:17:53;26.60;97.00
55203;DHT22;41077;52.956;6.796;2023-07-09T08:20:18;26.70;97.00
55203;DHT22;41077;52.956;6.796;2023-07-09T08:22:44;26.80;96.80
55203;DHT22;41077;52.956;6.796;2023-07-09T08:25:10;26.90;97.00
55203;DHT22;41077;52.956;6.796;2023-07-09T08:27:35;27.00;97.00
55203;DHT22;41077;52.956;6.796;2023-07-09T08:30:01;27.10;97.40
55203;DHT22;41077;52.956;6.796;2023-07-09T08:32:27;27.20;96.80
55203;DHT22;41077;52.956;6.796;2023-07-09T08:34:54;27.20;96.60
55203;DHT22;41077;52.956;6.796;2023-07-09T08:37:20;27.30;96.00
55203;DHT22;41077;52.956;6.796;2023-07-09T08:39:45;27.40;95.50
55203;DHT22;41077;52.956;6.796;2023-07-09T08:42:15;27.40;95.30
55203;DHT22;41077;52.956;6.796;2023-07-09T08:49:59;27.60;94.70
55203;DHT22;41077;52.956;6.796;2023-07-09T08:52:38;27.60;94.90
55203;DHT22;41077;52.956;6.796;2023-07-09T08:55:29;27.70;94.20
55203;DHT22;41077;52.956;6.796;2023-07-09T08:58:01;27.80;94.30
55203;DHT22;41077;52.956;6.796;2023-07-09T09:00:31;28.00;94.00
55203;DHT22;41077;52.956;6.796;2023-07-09T09:05:32;28.20;94.20
55203;DHT22;41077;52.956;6.796;2023-07-09T09:11:37;28.50;93.70
55203;DHT22;41077;52.956;6.796;2023-07-09T09:13:39;28.50;93.30
55203;DHT22;41077;52.956;6.796;2023-07-09T09:16:13;28.60;93.30
55203;DHT22;41077;52.956;6.796;2023-07-09T09:18:44;28.60;93.70
55203;DHT22;41077;52.956;6.796;2023-07-09T09:21:14;28.80;93.30
55203;DHT22;41077;52.956;6.796;2023-07-09T09:26:48;29.00;93.40
55203;DHT22;41077;52.956;6.796;2023-07-09T09:29:16;29.10;93.10
55203;DHT22;41077;52.956;6.796;2023-07-09T09:31:50;29.20;93.10
55203;DHT22;41077;52.956;6.796;2023-07-09T09:34:22;29.30;92.70
55203;DHT22;41077;52.956;6.796;2023-07-09T09:36:48;29.40;92.20
55203;DHT22;41077;52.956;6.796;2023-07-09T09:39:14;29.50;92.00
55203;DHT22;41077;52.956;6.796;2023-07-09T09:41:40;29.50;92.00
55203;DHT22;41077;52.956;6.796;2023-07-09T09:44:23;29.60;92.40
55203;DHT22;41077;52.956;6.796;2023-07-09T09:46:49;29.80;91.90
55203;DHT22;41077;52.956;6.796;2023-07-09T09:49:16;29.90;91.00
55203;DHT22;41077;52.956;6.796;2023-07-09T09:51:44;30.00;90.90
55203;DHT22;41077;52.956;6.796;2023-07-09T09:54:20;30.10;91.00
55203;DHT22;41077;52.956;6.796;2023-07-09T09:56:49;30.20;90.20
55203;DHT22;41077;52.956;6.796;2023-07-09T09:59:29;30.30;90.30
55203;DHT22;41077;52.956;6.796;2023-07-09T10:02:00;30.40;90.50
55203;DHT22;41077;52.956;6.796;2023-07-09T10:04:27;30.50;90.50
55203;DHT22;41077;52.956;6.796;2023-07-09T10:06:56;30.60;89.80
55203;DHT22;41077;52.956;6.796;2023-07-09T10:12:00;30.70;85.60
55203;DHT22;41077;52.956;6.796;2023-07-09T10:17:37;30.80;84.20
55203;DHT22;41077;52.956;6.796;2023-07-09T10:26:02;30.90;83.40
55203;DHT22;41077;52.956;6.796;2023-07-09T10:31:41;31.00;84.50
55203;DHT22;41077;52.956;6.796;2023-07-09T10:37:34;31.10;83.00
55203;DHT22;41077;52.956;6.796;2023-07-09T10:40:10;31.30;82.70
55203;DHT22;41077;52.956;6.796;2023-07-09T10:45:11;31.40;81.80
55203;DHT22;41077;52.956;6.796;2023-07-09T10:47:47;31.50;80.30
55203;DHT22;41077;52.956;6.796;2023-07-09T10:50:31;31.50;81.20
55203;DHT22;41077;52.956;6.796;2023-07-09T10:53:05;31.60;80.40
55203;DHT22;41077;52.956;6.796;2023-07-09T10:55:44;31.60;81.30
55203;DHT22;41077;52.956;6.796;2023-07-09T10:58:40;31.70;81.80
55203;DHT22;41077;52.956;6.796;2023-07-09T11:01:12;31.80;79.20
55203;DHT22;41077;52.956;6.796;2023-07-09T11:03:48;32.00;82.40
55203;DHT22;41077;52.956;6.796;2023-07-09T11:06:34;32.10;80.90
55203;DHT22;41077;52.956;6.796;2023-07-09T11:09:02;32.10;79.00
55203;DHT22;41077;52.956;6.796;2023-07-09T11:11:34;32.10;77.80
55203;DHT22;41077;52.956;6.796;2023-07-09T11:14:05;32.10;79.20
55203;DHT22;41077;52.956;6.796;2023-07-09T11:16:39;32.10;79.30
55203;DHT22;41077;52.956;6.796;2023-07-09T11:19:10;32.20;77.30
55203;DHT22;41077;52.956;6.796;2023-07-09T11:21:55;32.10;77.60
55203;DHT22;41077;52.956;6.796;2023-07-09T11:24:32;32.20;77.80
55203;DHT22;41077;52.956;6.796;2023-07-09T11:26:57;32.30;77.00
55203;DHT22;41077;52.956;6.796;2023-07-09T11:29:25;32.40;78.00
55203;DHT22;41077;52.956;6.796;2023-07-09T11:31:51;32.60;78.10
55203;DHT22;41077;52.956;6.796;2023-07-09T11:34:20;32.60;76.60
55203;DHT22;41077;52.956;6.796;2023-07-09T11:42:01;32.80;78.20
55203;DHT22;41077;52.956;6.796;2023-07-09T11:44:31;32.90;77.60
55203;DHT22;41077;52.956;6.796;2023-07-09T11:50:01;33.20;78.60
55203;DHT22;41077;52.956;6.796;2023-07-09T11:58:05;33.60;79.30
55203;DHT22;41077;52.956;6.796;2023-07-09T12:00:40;33.60;77.50
55203;DHT22;41077;52.956;6.796;2023-07-09T12:03:09;33.80;76.70
55203;DHT22;41077;52.956;6.796;2023-07-09T12:05:35;33.90;76.10
55203;DHT22;41077;52.956;6.796;2023-07-09T12:08:02;34.00;76.10
55203;DHT22;41077;52.956;6.796;2023-07-09T12:10:33;34.10;76.00
55203;DHT22;41077;52.956;6.796;2023-07-09T12:13:00;34.30;75.20
55203;DHT22;41077;52.956;6.796;2023-07-09T12:15:28;34.30;76.00
55203;DHT22;41077;52.956;6.796;2023-07-09T12:18:02;34.40;75.80
55203;DHT22;41077;52.956;6.796;2023-07-09T12:20:34;34.60;75.50
55203;DHT22;41077;52.956;6.796;2023-07-09T12:23:17;34.60;74.50
55203;DHT22;41077;52.956;6.796;2023-07-09T12:25:49;34.80;74.00
55203;DHT22;41077;52.956;6.796;2023-07-09T12:28:15;34.90;73.10
55203;DHT22;41077;52.956;6.796;2023-07-09T12:30:46;35.00;73.20
55203;DHT22;41077;52.956;6.796;2023-07-09T12:33:19;35.00;72.60
55203;DHT22;41077;52.956;6.796;2023-07-09T12:35:46;35.10;71.30
55203;DHT22;41077;52.956;6.796;2023-07-09T12:38:20;35.20;71.80
55203;DHT22;41077;52.956;6.796;2023-07-09T12:40:46;35.20;71.20
55203;DHT22;41077;52.956;6.796;2023-07-09T12:43:12;35.30;72.10
55203;DHT22;41077;52.956;6.796;2023-07-09T12:45:38;35.30;71.60
55203;DHT22;41077;52.956;6.796;2023-07-09T12:48:05;35.40;71.40
55203;DHT22;41077;52.956;6.796;2023-07-09T12:50:33;35.60;70.80
55203;DHT22;41077;52.956;6.796;2023-07-09T12:53:19;35.60;69.90
55203;DHT22;41077;52.956;6.796;2023-07-09T12:55:49;35.60;70.40
55203;DHT22;41077;52.956;6.796;2023-07-09T12:58:36;35.60;70.60
55203;DHT22;41077;52.956;6.796;2023-07-09T13:01:06;35.50;70.10
55203;DHT22;41077;52.956;6.796;2023-07-09T13:03:33;35.40;70.30
55203;DHT22;41077;52.956;6.796;2023-07-09T13:06:24;35.10;70.00
55203;DHT22;41077;52.956;6.796;2023-07-09T13:08:59;34.60;70.60
55203;DHT22;41077;52.956;6.796;2023-07-09T13:11:31;34.20;72.20
55203;DHT22;41077;52.956;6.796;2023-07-09T13:14:02;33.80;72.70
55203;DHT22;41077;52.956;6.796;2023-07-09T13:16:29;33.60;73.80
55203;DHT22;41077;52.956;6.796;2023-07-09T13:18:54;33.20;75.00
55203;DHT22;41077;52.956;6.796;2023-07-09T13:21:21;33.00;74.50
55203;DHT22;41077;52.956;6.796;2023-07-09T13:23:47;32.70;74.40
55203;DHT22;41077;52.956;6.796;2023-07-09T13:26:14;32.50;74.00
55203;DHT22;41077;52.956;6.796;2023-07-09T13:28:42;32.40;74.80
55203;DHT22;41077;52.956;6.796;2023-07-09T13:31:17;32.20;76.50
55203;DHT22;41077;52.956;6.796;2023-07-09T13:33:44;32.00;78.10
55203;DHT22;41077;52.956;6.796;2023-07-09T13:36:15;31.90;77.30
55203;DHT22;41077;52.956;6.796;2023-07-09T13:38:40;31.80;78.40
55203;DHT22;41077;52.956;6.796;2023-07-09T13:41:15;31.60;79.10
55203;DHT22;41077;52.956;6.796;2023-07-09T13:43:43;31.50;79.80
55203;DHT22;41077;52.956;6.796;2023-07-09T13:46:09;31.40;80.10
55203;DHT22;41077;52.956;6.796;2023-07-09T13:48:38;31.30;80.60
55203;DHT22;41077;52.956;6.796;2023-07-09T13:51:16;31.20;80.90
55203;DHT22;41077;52.956;6.796;2023-07-09T13:53:42;31.10;81.60
55203;DHT22;41077;52.956;6.796;2023-07-09T13:56:08;30.90;83.90
55203;DHT22;41077;52.956;6.796;2023-07-09T13:58:34;30.80;84.50
55203;DHT22;41077;52.956;6.796;2023-07-09T14:01:10;30.70;85.80
55203;DHT22;41077;52.956;6.796;2023-07-09T14:03:37;30.70;88.50
55203;DHT22;41077;52.956;6.796;2023-07-09T14:06:03;30.60;88.40
55203;DHT22;41077;52.956;6.796;2023-07-09T14:08:28;30.50;89.10
55203;DHT22;41077;52.956;6.796;2023-07-09T14:10:54;30.40;89.20
55203;DHT22;41077;52.956;6.796;2023-07-09T14:13:23;30.30;89.20
55203;DHT22;41077;52.956;6.796;2023-07-09T14:15:50;30.30;89.20
55203;DHT22;41077;52.956;6.796;2023-07-09T14:18:21;30.20;88.90
55203;DHT22;41077;52.956;6.796;2023-07-09T14:20:48;30.20;89.50
55203;DHT22;41077;52.956;6.796;2023-07-09T14:23:16;30.20;90.10
55203;DHT22;41077;52.956;6.796;2023-07-09T14:25:42;30.20;90.30
55203;DHT22;41077;52.956;6.796;2023-07-09T14:28:14;30.10;90.20
55203;DHT22;41077;52.956;6.796;2023-07-09T14:30:41;30.10;90.40
55203;DHT22;41077;52.956;6.796;2023-07-09T14:33:17;30.10;90.70
55203;DHT22;41077;52.956;6.796;2023-07-09T14:35:44;30.00;91.30
55203;DHT22;41077;52.956;6.796;2023-07-09T14:38:22;30.00;91.40
55203;DHT22;41077;52.956;6.796;2023-07-09T14:40:49;29.90;91.80
55203;DHT22;41077;52.956;6.796;2023-07-09T14:43:15;29.80;91.80
55203;DHT22;41077;52.956;6.796;2023-07-09T14:45:42;29.70;92.10
55203;DHT22;41077;52.956;6.796;2023-07-09T14:48:11;29.60;92.50
55203;DHT22;41077;52.956;6.796;2023-07-09T14:50:38;29.50;92.60
55203;DHT22;41077;52.956;6.796;2023-07-09T14:53:10;29.40;93.10
55203;DHT22;41077;52.956;6.796;2023-07-09T14:55:37;29.30;93.50
55203;DHT22;41077;52.956;6.796;2023-07-09T14:58:18;29.20;93.80
55203;DHT22;41077;52.956;6.796;2023-07-09T15:00:44;29.10;94.20
55203;DHT22;41077;52.956;6.796;2023-07-09T15:03:22;29.00;94.30
55203;DHT22;41077;52.956;6.796;2023-07-09T15:05:48;29.00;94.70
55203;DHT22;41077;52.956;6.796;2023-07-09T15:08:16;28.90;94.70
55203;DHT22;41077;52.956;6.796;2023-07-09T15:10:43;28.80;95.10
55203;DHT22;41077;52.956;6.796;2023-07-09T15:13:29;28.80;95.50
55203;DHT22;41077;52.956;6.796;2023-07-09T15:15:57;28.70;95.40
55203;DHT22;41077;52.956;6.796;2023-07-09T15:18:23;28.60;95.30
55203;DHT22;41077;52.956;6.796;2023-07-09T15:20:51;28.50;95.40
55203;DHT22;41077;52.956;6.796;2023-07-09T15:23:17;28.40;95.90
55203;DHT22;41077;52.956;6.796;2023-07-09T15:25:43;28.40;96.10
55203;DHT22;41077;52.956;6.796;2023-07-09T15:28:11;28.30;96.30
55203;DHT22;41077;52.956;6.796;2023-07-09T15:30:37;28.20;95.70
55203;DHT22;41077;52.956;6.796;2023-07-09T15:33:04;28.20;96.10
55203;DHT22;41077;52.956;6.796;2023-07-09T15:35:35;28.00;96.30
55203;DHT22;41077;52.956;6.796;2023-07-09T15:40:44;27.70;90.40
55203;DHT22;41077;52.956;6.796;2023-07-09T15:43:12;27.50;88.60
55203;DHT22;41077;52.956;6.796;2023-07-09T15:45:42;27.10;85.80
55203;DHT22;41077;52.956;6.796;2023-07-09T16:02:59;26.80;86.10
55203;DHT22;41077;52.956;6.796;2023-07-09T17:07:24;24.20;91.90
55203;DHT22;41077;52.956;6.796;2023-07-09T17:14:44;21.30;99.90
55203;DHT22;41077;52.956;6.796;2023-07-09T17:17:16;20.20;99.90
55203;DHT22;41077;52.956;6.796;2023-07-09T17:19:43;19.90;99.90
55203;DHT22;41077;52.956;6.796;2023-07-09T17:22:20;19.70;99.90
55203;DHT22;41077;52.956;6.796;2023-07-09T17:24:47;19.70;99.90
55203;DHT22;41077;52.956;6.796;2023-07-09T17:27:13;19.70;99.90
55203;DHT22;41077;52.956;6.796;2023-07-09T17:32:06;19.70;99.90
55203;DHT22;41077;52.956;6.796;2023-07-09T17:34:32;19.90;99.90
55203;DHT22;41077;52.956;6.796;2023-07-09T17:36:58;20.00;99.90
55203;DHT22;41077;52.956;6.796;2023-07-09T17:39:24;20.10;99.90
55203;DHT22;41077;52.956;6.796;2023-07-09T17:41:51;20.10;99.90
55203;DHT22;41077;52.956;6.796;2023-07-09T17:44:19;20.20;99.90
55203;DHT22;41077;52.956;6.796;2023-07-09T17:46:47;20.20;99.90
55203;DHT22;41077;52.956;6.796;2023-07-09T17:49:19;20.20;99.90
55203;DHT22;41077;52.956;6.796;2023-07-09T17:51:45;20.30;99.90
55203;DHT22;41077;52.956;6.796;2023-07-09T17:54:16;20.30;99.90
55203;DHT22;41077;52.956;6.796;2023-07-09T17:56:42;20.30;99.90
55203;DHT22;41077;52.956;6.796;2023-07-09T17:59:13;20.30;99.90
55203;DHT22;41077;52.956;6.796;2023-07-09T18:01:39;20.30;99.90
55203;DHT22;41077;52.956;6.796;2023-07-09T18:04:31;20.40;99.90
55203;DHT22;41077;52.956;6.796;2023-07-09T18:06:58;20.40;99.90
55203;DHT22;41077;52.956;6.796;2023-07-09T18:09:26;20.40;99.90
55203;DHT22;41077;52.956;6.796;2023-07-09T18:11:53;20.40;99.90
55203;DHT22;41077;52.956;6.796;2023-07-09T18:14:23;20.30;99.90
55203;DHT22;41077;52.956;6.796;2023-07-09T18:16:50;20.30;99.90
55203;DHT22;41077;52.956;6.796;2023-07-09T18:19:23;20.30;99.90
55203;DHT22;41077;52.956;6.796;2023-07-09T18:21:50;20.30;99.90
55203;DHT22;41077;52.956;6.796;2023-07-09T18:24:17;20.30;99.90
55203;DHT22;41077;52.956;6.796;2023-07-09T18:26:43;20.30;99.90
55203;DHT22;41077;52.956;6.796;2023-07-09T18:29:24;20.20;99.90
55203;DHT22;41077;52.956;6.796;2023-07-09T18:31:50;20.20;99.90
55203;DHT22;41077;52.956;6.796;2023-07-09T18:34:16;20.10;99.90
55203;DHT22;41077;52.956;6.796;2023-07-09T18:36:42;20.10;99.90
55203;DHT22;41077;52.956;6.796;2023-07-09T18:39:07;20.00;99.90
55203;DHT22;41077;52.956;6.796;2023-07-09T18:41:33;20.10;99.90
55203;DHT22;41077;52.956;6.796;2023-07-09T18:43:59;20.10;99.90
55203;DHT22;41077;52.956;6.796;2023-07-09T18:46:24;20.00;99.90
55203;DHT22;41077;52.956;6.796;2023-07-09T18:48:50;20.10;99.90
55203;DHT22;41077;52.956;6.796;2023-07-09T18:51:16;20.10;99.90
55203;DHT22;41077;52.956;6.796;2023-07-09T18:53:42;20.10;99.90
55203;DHT22;41077;52.956;6.796;2023-07-09T18:56:08;20.10;99.90
55203;DHT22;41077;52.956;6.796;2023-07-09T18:58:34;20.10;99.90
55203;DHT22;41077;52.956;6.796;2023-07-09T19:01:10;20.10;99.90
55203;DHT22;41077;52.956;6.796;2023-07-09T19:03:38;20.10;99.90
55203;DHT22;41077;52.956;6.796;2023-07-09T19:06:07;20.10;99.90
55203;DHT22;41077;52.956;6.796;2023-07-09T19:08:34;20.10;99.90
55203;DHT22;41077;52.956;6.796;2023-07-09T19:10:59;20.10;99.90
55203;DHT22;41077;52.956;6.796;2023-07-09T19:13:26;20.10;99.90
55203;DHT22;41077;52.956;6.796;2023-07-09T19:15:52;20.10;99.90
55203;DHT22;41077;52.956;6.796;2023-07-09T19:18:21;20.00;99.90
55203;DHT22;41077;52.956;6.796;2023-07-09T19:20:49;20.00;99.90
55203;DHT22;41077;52.956;6.796;2023-07-09T19:23:16;20.00;99.90
55203;DHT22;41077;52.956;6.796;2023-07-09T19:25:45;20.00;99.90
55203;DHT22;41077;52.956;6.796;2023-07-09T19:28:11;19.90;99.90
55203;DHT22;41077;52.956;6.796;2023-07-09T19:30:37;19.90;99.90
55203;DHT22;41077;52.956;6.796;2023-07-09T19:33:04;19.90;99.90
55203;DHT22;41077;52.956;6.796;2023-07-09T19:35:30;19.90;99.90
55203;DHT22;41077;52.956;6.796;2023-07-09T19:37:57;19.90;99.90
55203;DHT22;41077;52.956;6.796;2023-07-09T19:40:25;19.90;99.90
55203;DHT22;41077;52.956;6.796;2023-07-09T19:42:52;19.80;99.90
55203;DHT22;41077;52.956;6.796;2023-07-09T19:45:24;19.80;99.90
55203;DHT22;41077;52.956;6.796;2023-07-09T19:47:52;19.80;99.90
55203;DHT22;41077;52.956;6.796;2023-07-09T19:50:29;19.80;99.90
55203;DHT22;41077;52.956;6.796;2023-07-09T19:52:58;19.70;99.90
55203;DHT22;41077;52.956;6.796;2023-07-09T19:55:26;19.70;99.90
55203;DHT22;41077;52.956;6.796;2023-07-09T19:57:52;19.70;99.90
55203;DHT22;41077;52.956;6.796;2023-07-09T20:00:21;19.70;99.90
55203;DHT22;41077;52.956;6.796;2023-07-09T20:02:47;19.70;99.90
55203;DHT22;41077;52.956;6.796;2023-07-09T20:05:15;19.70;99.90
55203;DHT22;41077;52.956;6.796;2023-07-09T20:07:41;19.70;99.90
55203;DHT22;41077;52.956;6.796;2023-07-09T20:10:07;19.60;99.90
55203;DHT22;41077;52.956;6.796;2023-07-09T20:12:33;19.70;99.90
55203;DHT22;41077;52.956;6.796;2023-07-09T20:15:00;19.70;99.90
55203;DHT22;41077;52.956;6.796;2023-07-09T20:17:26;19.70;99.90
55203;DHT22;41077;52.956;6.796;2023-07-09T20:19:53;19.70;99.90
55203;DHT22;41077;52.956;6.796;2023-07-09T20:22:22;19.70;99.90
55203;DHT22;41077;52.956;6.796;2023-07-09T20:24:48;19.70;99.90
55203;DHT22;41077;52.956;6.796;2023-07-09T20:27:16;19.60;99.90
55203;DHT22;41077;52.956;6.796;2023-07-09T20:29:42;19.70;99.90
55203;DHT22;41077;52.956;6.796;2023-07-09T20:32:29;19.60;99.90
55203;DHT22;41077;52.956;6.796;2023-07-09T20:34:54;19.60;99.90
55203;DHT22;41077;52.956;6.796;2023-07-09T20:37:20;19.60;99.90
55203;DHT22;41077;52.956;6.796;2023-07-09T20:39:47;19.60;99.90
55203;DHT22;41077;52.956;6.796;2023-07-09T20:42:13;19.60;99.90
55203;DHT22;41077;52.956;6.796;2023-07-09T20:44:41;19.60;99.90
55203;DHT22;41077;52.956;6.796;2023-07-09T20:47:18;19.60;99.90
55203;DHT22;41077;52.956;6.796;2023-07-09T20:49:45;19.50;99.90
55203;DHT22;41077;52.956;6.796;2023-07-09T20:52:11;19.50;99.90
55203;DHT22;41077;52.956;6.796;2023-07-09T20:54:38;19.50;99.90
55203;DHT22;41077;52.956;6.796;2023-07-09T20:57:13;19.50;99.90
55203;DHT22;41077;52.956;6.796;2023-07-09T20:59:39;19.50;99.90
55203;DHT22;41077;52.956;6.796;2023-07-09T21:02:19;19.50;99.90
55203;DHT22;41077;52.956;6.796;2023-07-09T21:04:45;19.60;99.90
55203;DHT22;41077;52.956;6.796;2023-07-09T21:07:11;19.50;99.90
55203;DHT22;41077;52.956;6.796;2023-07-09T21:09:37;19.50;99.90
55203;DHT22;41077;52.956;6.796;2023-07-09T21:12:13;19.50;99.90
55203;DHT22;41077;52.956;6.796;2023-07-09T21:14:40;19.50;99.90
55203;DHT22;41077;52.956;6.796;2023-07-09T21:17:13;19.60;99.90
55203;DHT22;41077;52.956;6.796;2023-07-09T21:19:40;19.50;99.90
55203;DHT22;41077;52.956;6.796;2023-07-09T21:22:11;19.50;99.90
55203;DHT22;41077;52.956;6.796;2023-07-09T21:24:38;19.60;99.90
55203;DHT22;41077;52.956;6.796;2023-07-09T21:27:05;19.60;99.90
55203;DHT22;41077;52.956;6.796;2023-07-09T21:29:31;19.60;99.90
55203;DHT22;41077;52.956;6.796;2023-07-09T21:32:02;19.60;99.90
55203;DHT22;41077;52.956;6.796;2023-07-09T21:34:31;19.60;99.90
55203;DHT22;41077;52.956;6.796;2023-07-09T21:36:59;19.60;99.90
55203;DHT22;41077;52.956;6.796;2023-07-09T21:39:29;19.60;99.90
55203;DHT22;41077;52.956;6.796;2023-07-09T21:41:57;19.60;99.90
55203;DHT22;41077;52.956;6.796;2023-07-09T21:44:24;19.60;99.90
55203;DHT22;41077;52.956;6.796;2023-07-09T21:46:54;19.60;99.90
55203;DHT22;41077;52.956;6.796;2023-07-09T21:49:25;19.60;99.90
55203;DHT22;41077;52.956;6.796;2023-07-09T21:51:51;19.60;99.90
55203;DHT22;41077;52.956;6.796;2023-07-09T21:54:43;19.60;99.90
55203;DHT22;41077;52.956;6.796;2023-07-09T21:57:14;19.60;99.90
55203;DHT22;41077;52.956;6.796;2023-07-09T21:59:41;19.60;99.90
55203;DHT22;41077;52.956;6.796;2023-07-09T22:02:15;19.60;99.90
55203;DHT22;41077;52.956;6.796;2023-07-09T22:04:41;19.60;99.90
55203;DHT22;41077;52.956;6.796;2023-07-09T22:07:22;19.50;99.90
55203;DHT22;41077;52.956;6.796;2023-07-09T22:09:49;19.50;99.90
55203;DHT22;41077;52.956;6.796;2023-07-09T22:12:15;19.60;99.90
55203;DHT22;41077;52.956;6.796;2023-07-09T22:14:54;19.50;99.90
55203;DHT22;41077;52.956;6.796;2023-07-09T22:17:21;19.60;99.90
55203;DHT22;41077;52.956;6.796;2023-07-09T22:19:58;19.50;99.90
55203;DHT22;41077;52.956;6.796;2023-07-09T22:22:26;19.60;99.90
55203;DHT22;41077;52.956;6.796;2023-07-09T22:24:52;19.60;99.90
55203;DHT22;41077;52.956;6.796;2023-07-09T22:27:19;19.60;99.90
55203;DHT22;41077;52.956;6.796;2023-07-09T22:29:45;19.50;99.90
55203;DHT22;41077;52.956;6.796;2023-07-09T22:32:19;19.60;99.90
55203;DHT22;41077;52.956;6.796;2023-07-09T22:34:45;19.50;99.90
55203;DHT22;41077;52.956;6.796;2023-07-09T22:37:13;19.60;99.90
55203;DHT22;41077;52.956;6.796;2023-07-09T22:39:39;19.50;99.90